createdAt,value
2023-03-22T00:00:22.947Z,0.00
2023-03-22T00:01:22.974Z,0.00
2023-03-22T00:02:23.120Z,0.00
2023-03-22T00:03:22.959Z,0.00
2023-03-22T00:04:22.945Z,0.00
2023-03-22T00:05:22.904Z,0.00
2023-03-22T00:06:22.903Z,0.00
2023-03-22T00:07:22.894Z,0.00
2023-03-22T00:08:22.881Z,0.00
2023-03-22T00:09:22.904Z,0.00
2023-03-22T00:10:22.872Z,0.00
2023-03-22T00:11:22.863Z,0.00
2023-03-22T00:12:22.862Z,0.00
2023-03-22T00:13:22.852Z,0.00
2023-03-22T00:14:22.872Z,0.00
2023-03-22T00:15:22.864Z,0.00
2023-03-22T00:16:22.872Z,0.00
2023-03-22T00:17:22.821Z,0.00
2023-03-22T00:18:22.806Z,0.00
2023-03-22T00:19:22.833Z,0.00
2023-03-22T00:20:22.806Z,0.00
2023-03-22T00:21:22.807Z,0.00
2023-03-22T00:22:22.777Z,0.00
2023-03-22T00:23:22.769Z,0.00
2023-03-22T00:24:22.788Z,0.00
2023-03-22T00:25:22.753Z,0.00
2023-03-22T00:26:22.921Z,0.00
2023-03-22T00:27:22.726Z,0.00
2023-03-22T00:28:22.719Z,0.00
2023-03-22T00:29:22.763Z,0.00
2023-03-22T00:30:22.714Z,0.00
2023-03-22T00:31:22.732Z,0.00
2023-03-22T00:32:22.693Z,0.00
2023-03-22T00:33:22.683Z,0.00
2023-03-22T00:34:22.716Z,0.00
2023-03-22T00:35:22.691Z,0.00
2023-03-22T00:36:22.663Z,0.00
2023-03-22T00:37:22.656Z,0.00
2023-03-22T00:38:32.558Z,0.00
2023-03-22T00:39:24.671Z,0.00
2023-03-22T00:40:22.631Z,0.00
2023-03-22T00:41:22.646Z,0.00
2023-03-22T00:42:22.614Z,0.00
2023-03-22T00:43:22.612Z,0.00
2023-03-22T00:44:22.634Z,0.00
2023-03-22T00:45:22.594Z,0.00
2023-03-22T00:46:22.663Z,0.00
2023-03-22T00:47:22.583Z,0.00
2023-03-22T00:48:22.606Z,0.00
2023-03-22T00:49:22.572Z,0.00
2023-03-22T00:50:22.586Z,0.00
2023-03-22T00:51:22.548Z,0.00
2023-03-22T00:52:22.543Z,0.00
2023-03-22T00:53:22.527Z,0.00
2023-03-22T00:54:22.561Z,0.00
2023-03-22T00:55:22.519Z,0.00
2023-03-22T00:56:22.509Z,0.00
2023-03-22T00:57:22.497Z,0.00
2023-03-22T00:58:22.490Z,0.00
2023-03-22T00:59:22.486Z,0.00
2023-03-22T01:00:22.508Z,0.00
2023-03-22T01:01:22.497Z,0.00
2023-03-22T01:02:22.467Z,0.00
2023-03-22T01:03:22.500Z,0.00
2023-03-22T01:04:22.444Z,0.00
2023-03-22T01:05:22.475Z,0.00
2023-03-22T01:06:22.420Z,0.00
2023-03-22T01:07:22.428Z,0.00
2023-03-22T01:08:22.422Z,0.00
2023-03-22T01:09:22.402Z,0.00
2023-03-22T01:10:22.428Z,0.00
2023-03-22T01:11:22.393Z,0.00
2023-03-22T01:12:22.380Z,0.00
2023-03-22T01:13:22.372Z,0.00
2023-03-22T01:14:22.368Z,0.00
2023-03-22T01:15:22.399Z,0.00
2023-03-22T01:16:22.446Z,0.00
2023-03-22T01:17:22.341Z,0.00
2023-03-22T01:18:22.344Z,0.00
2023-03-22T01:19:22.324Z,0.00
2023-03-22T01:20:22.345Z,0.00
2023-03-22T01:21:22.316Z,0.00
2023-03-22T01:22:22.307Z,0.00
2023-03-22T01:23:22.296Z,0.00
2023-03-22T01:24:22.292Z,0.00
2023-03-22T01:25:22.312Z,0.00
2023-03-22T01:26:22.303Z,0.00
2023-03-22T01:27:22.275Z,0.00
2023-03-22T01:28:22.265Z,0.00
2023-03-22T01:29:23.257Z,0.00
2023-03-22T01:30:22.279Z,0.00
2023-03-22T01:31:22.257Z,0.00
2023-03-22T01:32:22.236Z,0.00
2023-03-22T01:33:22.216Z,0.00
2023-03-22T01:34:22.221Z,0.00
2023-03-22T01:35:22.252Z,0.00
2023-03-22T01:36:22.206Z,0.00
2023-03-22T01:37:22.193Z,0.00
2023-03-22T01:38:22.202Z,0.00
2023-03-22T01:39:22.171Z,0.00
2023-03-22T01:40:22.202Z,0.00
2023-03-22T01:41:22.173Z,0.00
2023-03-22T01:42:22.147Z,0.00
2023-03-22T01:43:22.144Z,0.00
2023-03-22T01:44:22.129Z,0.00
2023-03-22T01:45:22.149Z,0.00
2023-03-22T01:46:22.153Z,0.00
2023-03-22T01:47:22.112Z,0.00
2023-03-22T01:48:22.209Z,0.00
2023-03-22T01:49:22.140Z,0.00
2023-03-22T01:50:22.109Z,0.00
2023-03-22T01:51:22.081Z,0.00
2023-03-22T01:52:22.071Z,0.00
2023-03-22T01:53:22.063Z,0.00
2023-03-22T01:54:22.060Z,0.00
2023-03-22T01:55:22.081Z,0.00
2023-03-22T01:56:22.046Z,0.00
2023-03-22T01:57:22.031Z,0.00
2023-03-22T01:58:22.029Z,0.00
2023-03-22T01:59:22.010Z,0.00
2023-03-22T02:00:22.030Z,0.00
2023-03-22T02:01:22.019Z,0.00
2023-03-22T02:02:22.033Z,0.00
2023-03-22T02:03:21.981Z,0.00
2023-03-22T02:04:21.975Z,0.00
2023-03-22T02:05:21.998Z,0.00
2023-03-22T02:06:21.977Z,0.00
2023-03-22T02:07:21.964Z,0.00
2023-03-22T02:08:21.959Z,0.00
2023-03-22T02:09:21.982Z,0.00
2023-03-22T02:10:21.942Z,0.00
2023-03-22T02:11:21.943Z,0.00
2023-03-22T02:12:21.912Z,0.00
2023-03-22T02:13:21.901Z,0.00
2023-03-22T02:14:23.389Z,0.00
2023-03-22T02:15:21.970Z,0.00
2023-03-22T02:16:21.882Z,0.00
2023-03-22T02:17:21.872Z,0.00
2023-03-22T02:18:21.866Z,0.00
2023-03-22T02:19:21.856Z,0.00
2023-03-22T02:20:21.850Z,0.00
2023-03-22T02:21:21.868Z,0.00
2023-03-22T02:22:21.835Z,0.00
2023-03-22T02:23:21.834Z,0.00
2023-03-22T02:24:21.816Z,0.00
2023-03-22T02:25:21.810Z,0.00
2023-03-22T02:26:21.826Z,0.00
2023-03-22T02:27:21.804Z,0.00
2023-03-22T02:28:21.784Z,0.00
2023-03-22T02:29:21.775Z,0.00
2023-03-22T02:30:21.765Z,0.00
2023-03-22T02:31:21.908Z,0.00
2023-03-22T02:32:21.750Z,0.00
2023-03-22T02:33:21.748Z,0.00
2023-03-22T02:34:21.735Z,0.00
2023-03-22T02:35:21.750Z,0.00
2023-03-22T02:36:21.754Z,0.00
2023-03-22T02:37:21.728Z,0.00
2023-03-22T02:38:21.717Z,0.00
2023-03-22T02:39:21.695Z,0.00
2023-03-22T02:40:21.689Z,0.00
2023-03-22T02:41:21.706Z,0.00
2023-03-22T02:42:21.679Z,0.00
2023-03-22T02:43:21.666Z,0.00
2023-03-22T02:44:21.657Z,0.00
2023-03-22T02:45:21.695Z,0.00
2023-03-22T02:46:21.694Z,0.00
2023-03-22T02:47:21.638Z,0.00
2023-03-22T02:48:21.709Z,0.00
2023-03-22T02:49:21.628Z,0.00
2023-03-22T02:50:21.609Z,0.00
2023-03-22T02:51:21.633Z,0.00
2023-03-22T02:52:21.601Z,0.00
2023-03-22T02:53:21.588Z,0.00
2023-03-22T02:54:21.579Z,0.00
2023-03-22T02:55:21.573Z,0.00
2023-03-22T02:56:21.599Z,0.00
2023-03-22T02:57:21.550Z,0.00
2023-03-22T02:58:21.540Z,0.00
2023-03-22T02:59:21.532Z,0.00
2023-03-22T03:00:21.526Z,0.00
2023-03-22T03:01:21.600Z,0.00
2023-03-22T03:02:21.536Z,0.00
2023-03-22T03:03:21.496Z,0.00
2023-03-22T03:04:21.496Z,0.00
2023-03-22T03:05:21.485Z,0.00
2023-03-22T03:06:21.511Z,0.00
2023-03-22T03:07:21.475Z,0.00
2023-03-22T03:08:21.456Z,0.00
2023-03-22T03:09:21.455Z,0.00
2023-03-22T03:10:21.449Z,0.00
2023-03-22T03:11:21.501Z,0.00
2023-03-22T03:12:21.433Z,0.00
2023-03-22T03:13:21.421Z,0.00
2023-03-22T03:14:21.419Z,0.00
2023-03-22T03:15:21.413Z,0.00
2023-03-22T03:16:21.453Z,0.00
2023-03-22T03:17:21.401Z,0.00
2023-03-22T03:18:21.389Z,0.00
2023-03-22T03:19:21.370Z,0.00
2023-03-22T03:20:21.368Z,0.00
2023-03-22T03:21:21.387Z,0.00
2023-03-22T03:22:21.351Z,0.00
2023-03-22T03:23:21.345Z,0.00
2023-03-22T03:24:21.338Z,0.00
2023-03-22T03:25:21.335Z,0.00
2023-03-22T03:26:21.317Z,0.00
2023-03-22T03:27:21.343Z,0.00
2023-03-22T03:28:21.312Z,0.00
2023-03-22T03:29:21.288Z,0.00
2023-03-22T03:30:21.325Z,0.00
2023-03-22T03:31:21.318Z,0.00
2023-03-22T03:32:21.301Z,0.00
2023-03-22T03:33:21.258Z,0.00
2023-03-22T03:34:21.248Z,0.00
2023-03-22T03:35:21.267Z,0.00
2023-03-22T03:36:21.241Z,0.00
2023-03-22T03:37:21.250Z,0.00
2023-03-22T03:38:21.218Z,0.00
2023-03-22T03:39:21.213Z,0.00
2023-03-22T03:40:21.204Z,0.00
2023-03-22T03:41:21.190Z,0.00
2023-03-22T03:42:21.209Z,0.00
2023-03-22T03:43:21.185Z,0.00
2023-03-22T03:44:21.170Z,0.00
2023-03-22T03:45:22.212Z,0.00
2023-03-22T03:46:21.164Z,0.00
2023-03-22T03:47:21.181Z,0.00
2023-03-22T03:48:21.276Z,0.00
2023-03-22T03:49:21.132Z,0.00
2023-03-22T03:50:21.122Z,0.00
2023-03-22T03:51:21.125Z,0.00
2023-03-22T03:52:21.133Z,0.00
2023-03-22T03:53:21.104Z,0.00
2023-03-22T03:54:21.092Z,0.00
2023-03-22T03:55:21.085Z,0.00
2023-03-22T03:56:21.119Z,0.00
2023-03-22T03:57:21.095Z,0.00
2023-03-22T03:58:21.063Z,0.00
2023-03-22T03:59:21.075Z,0.00
2023-03-22T04:00:21.045Z,0.00
2023-03-22T04:01:21.062Z,0.00
2023-03-22T04:02:21.101Z,0.00
2023-03-22T04:03:21.027Z,0.00
2023-03-22T04:04:21.105Z,0.00
2023-03-22T04:05:21.067Z,0.00
2023-03-22T04:06:21.053Z,0.00
2023-03-22T04:07:21.048Z,0.00
2023-03-22T04:08:21.058Z,0.00
2023-03-22T04:09:20.976Z,0.00
2023-03-22T04:10:20.964Z,0.00
2023-03-22T04:11:20.962Z,0.00
2023-03-22T04:12:20.970Z,0.00
2023-03-22T04:13:21.942Z,0.00
2023-03-22T04:14:20.938Z,0.00
2023-03-22T04:15:20.924Z,0.00
2023-03-22T04:16:20.956Z,0.00
2023-03-22T04:17:20.941Z,0.00
2023-03-22T04:18:20.901Z,0.00
2023-03-22T04:19:20.894Z,0.00
2023-03-22T04:20:20.899Z,0.00
2023-03-22T04:21:20.874Z,0.00
2023-03-22T04:22:21.892Z,0.00
2023-03-22T04:23:20.858Z,0.00
2023-03-22T04:24:20.852Z,0.00
2023-03-22T04:25:20.853Z,0.00
2023-03-22T04:26:20.842Z,0.00
2023-03-22T04:27:20.854Z,0.00
2023-03-22T04:28:20.823Z,0.00
2023-03-22T04:29:20.815Z,0.00
2023-03-22T04:30:20.805Z,0.00
2023-03-22T04:31:20.847Z,0.00
2023-03-22T04:32:20.819Z,0.00
2023-03-22T04:33:20.786Z,0.00
2023-03-22T04:34:20.777Z,0.00
2023-03-22T04:35:20.774Z,0.00
2023-03-22T04:36:20.762Z,0.00
2023-03-22T04:37:20.776Z,0.00
2023-03-22T04:38:20.734Z,0.00
2023-03-22T04:39:21.736Z,0.00
2023-03-22T04:40:20.734Z,0.00
2023-03-22T04:41:20.716Z,0.00
2023-03-22T04:42:20.735Z,0.00
2023-03-22T04:43:20.699Z,0.00
2023-03-22T04:44:20.695Z,0.00
2023-03-22T04:45:20.685Z,0.00
2023-03-22T04:46:20.688Z,0.00
2023-03-22T04:47:20.691Z,0.00
2023-03-22T04:48:20.744Z,0.00
2023-03-22T04:49:20.648Z,0.00
2023-03-22T04:50:20.644Z,4.00
2023-03-22T04:51:20.638Z,4.00
2023-03-22T04:52:20.650Z,4.00
2023-03-22T04:53:20.632Z,0.00
2023-03-22T04:54:20.612Z,4.00
2023-03-22T04:55:20.600Z,4.00
2023-03-22T04:56:20.619Z,8.00
2023-03-22T04:57:20.618Z,8.00
2023-03-22T04:58:20.580Z,8.00
2023-03-22T04:59:20.575Z,12.00
2023-03-22T05:00:20.585Z,12.00
2023-03-22T05:01:20.587Z,16.00
2023-03-22T05:02:20.639Z,16.00
2023-03-22T05:03:20.544Z,24.00
2023-03-22T05:04:20.535Z,28.00
2023-03-22T05:05:20.516Z,32.00
2023-03-22T05:06:21.523Z,44.00
2023-03-22T05:07:20.548Z,48.00
2023-03-22T05:08:20.509Z,60.00
2023-03-22T05:09:23.190Z,72.00
2023-03-22T05:10:21.495Z,84.00
2023-03-22T05:11:20.489Z,92.00
2023-03-22T05:12:20.515Z,100.00
2023-03-22T05:13:20.466Z,112.00
2023-03-22T05:14:20.532Z,120.00
2023-03-22T05:15:20.455Z,132.00
2023-03-22T05:16:20.472Z,148.00
2023-03-22T05:17:20.441Z,164.00
2023-03-22T05:18:20.459Z,184.00
2023-03-22T05:19:20.422Z,200.00
2023-03-22T05:20:20.408Z,228.00
2023-03-22T05:21:20.407Z,260.00
2023-03-22T05:22:20.425Z,308.00
2023-03-22T05:23:20.386Z,360.00
2023-03-22T05:24:20.380Z,424.00
2023-03-22T05:25:20.716Z,492.00
2023-03-22T05:26:20.423Z,564.00
2023-03-22T05:27:20.356Z,640.00
2023-03-22T05:28:20.378Z,708.00
2023-03-22T05:29:20.342Z,784.00
2023-03-22T05:30:20.329Z,872.00
2023-03-22T05:31:20.356Z,956.00
2023-03-22T05:32:20.317Z,1060.00
2023-03-22T05:33:20.335Z,1148.00
2023-03-22T05:34:20.298Z,1232.00
2023-03-22T05:35:20.324Z,1288.00
2023-03-22T05:36:20.317Z,1360.00
2023-03-22T05:37:20.277Z,1392.00
2023-03-22T05:38:20.293Z,1464.00
2023-03-22T05:39:20.263Z,1592.00
2023-03-22T05:40:20.253Z,1644.00
2023-03-22T05:41:20.251Z,1816.00
2023-03-22T05:42:20.236Z,1848.00
2023-03-22T05:43:20.260Z,1948.00
2023-03-22T05:44:20.220Z,1920.00
2023-03-22T05:45:20.216Z,1672.00
2023-03-22T05:46:20.291Z,1420.00
2023-03-22T05:47:20.198Z,1160.00
2023-03-22T05:48:20.344Z,952.00
2023-03-22T05:49:20.182Z,856.00
2023-03-22T05:50:20.174Z,956.00
2023-03-22T05:51:20.168Z,1180.00
2023-03-22T05:52:20.161Z,1472.00
2023-03-22T05:53:20.175Z,1504.00
2023-03-22T05:54:20.138Z,1456.00
2023-03-22T05:55:20.135Z,1384.00
2023-03-22T05:56:20.128Z,1280.00
2023-03-22T05:57:20.124Z,1260.00
2023-03-22T05:58:20.137Z,1336.00
2023-03-22T05:59:20.105Z,1372.00
2023-03-22T06:00:20.094Z,1680.00
2023-03-22T06:01:20.090Z,1856.00
2023-03-22T06:02:20.113Z,1640.00
2023-03-22T06:03:20.207Z,1560.00
2023-03-22T06:04:20.064Z,1588.00
2023-03-22T06:05:20.057Z,1496.00
2023-03-22T06:06:20.039Z,1500.00
2023-03-22T06:07:20.042Z,1608.00
2023-03-22T06:08:20.054Z,1660.00
2023-03-22T06:09:20.017Z,1768.00
2023-03-22T06:10:20.022Z,1800.00
2023-03-22T06:11:20.008Z,1908.00
2023-03-22T06:12:19.995Z,2296.00
2023-03-22T06:13:20.032Z,2428.00
2023-03-22T06:14:19.980Z,2324.00
2023-03-22T06:15:19.974Z,2092.00
2023-03-22T06:16:20.043Z,2148.00
2023-03-22T06:17:19.955Z,2484.00
2023-03-22T06:18:19.975Z,2608.00
2023-03-22T06:19:19.939Z,2600.00
2023-03-22T06:20:19.934Z,2864.00
2023-03-22T06:21:19.927Z,2844.00
2023-03-22T06:22:19.933Z,2968.00
2023-03-22T06:23:19.937Z,2984.00
2023-03-22T06:24:19.903Z,3316.00
2023-03-22T06:25:19.899Z,3408.00
2023-03-22T06:26:19.890Z,3484.00
2023-03-22T06:27:19.878Z,3568.00
2023-03-22T06:28:19.895Z,3944.00
2023-03-22T06:29:19.861Z,4716.00
2023-03-22T06:30:19.852Z,5332.00
2023-03-22T06:31:19.920Z,5720.00
2023-03-22T06:32:19.836Z,6728.00
2023-03-22T06:33:19.859Z,8528.00
2023-03-22T06:34:19.819Z,8960.00
2023-03-22T06:35:19.870Z,12012.00
2023-03-22T06:36:19.803Z,21856.00
2023-03-22T06:37:19.795Z,10380.00
2023-03-22T06:38:19.813Z,21056.00
2023-03-22T06:39:19.779Z,29824.00
2023-03-22T06:40:19.781Z,25888.00
2023-03-22T06:41:19.770Z,37824.00
2023-03-22T06:42:19.783Z,38752.00
2023-03-22T06:43:19.782Z,38944.00
2023-03-22T06:44:19.739Z,40480.00
2023-03-22T06:45:19.735Z,41024.00
2023-03-22T06:46:19.746Z,41408.00
2023-03-22T06:47:19.711Z,42688.00
2023-03-22T06:48:19.775Z,41280.00
2023-03-22T06:49:19.696Z,44768.00
2023-03-22T06:50:19.747Z,46432.00
2023-03-22T06:51:19.684Z,47264.00
2023-03-22T06:52:19.692Z,49248.00
2023-03-22T06:53:19.678Z,51520.00
2023-03-22T06:54:19.684Z,51840.00
2023-03-22T06:55:19.656Z,54176.00
2023-03-22T06:56:19.645Z,56928.00
2023-03-22T06:57:19.635Z,56640.00
2023-03-22T06:58:19.631Z,55520.00
2023-03-22T06:59:19.639Z,51360.00
2023-03-22T07:00:19.607Z,52416.00
2023-03-22T07:01:19.622Z,53408.00
2023-03-22T07:02:20.590Z,54400.00
2023-03-22T07:03:20.588Z,55776.00
2023-03-22T07:04:19.625Z,53760.00
2023-03-22T07:05:19.572Z,56768.00
2023-03-22T07:06:19.573Z,55936.00
2023-03-22T07:07:19.558Z,55360.00
2023-03-22T07:08:19.547Z,56992.00
2023-03-22T07:09:19.574Z,58560.00
2023-03-22T07:10:19.545Z,59680.00
2023-03-22T07:11:19.529Z,58624.00
2023-03-22T07:12:19.534Z,58752.00
2023-03-22T07:13:19.516Z,59424.00
2023-03-22T07:14:19.530Z,60096.00
2023-03-22T07:15:19.504Z,60832.00
2023-03-22T07:16:20.190Z,60800.00
2023-03-22T07:17:20.482Z,60640.00
2023-03-22T07:18:19.475Z,62336.00
2023-03-22T07:19:19.497Z,60640.00
2023-03-22T07:20:19.458Z,60256.00
2023-03-22T07:21:19.456Z,62112.00
2023-03-22T07:22:19.452Z,63296.00
2023-03-22T07:23:19.436Z,63968.00
2023-03-22T07:24:19.457Z,64928.00
2023-03-22T07:25:19.439Z,64416.00
2023-03-22T07:26:19.420Z,55936.00
2023-03-22T07:27:19.408Z,42880.00
2023-03-22T07:28:19.398Z,35968.00
2023-03-22T07:29:19.414Z,34624.00
2023-03-22T07:30:19.380Z,34112.00
2023-03-22T07:31:19.377Z,34016.00
2023-03-22T07:32:19.538Z,34528.00
2023-03-22T07:33:19.366Z,36192.00
2023-03-22T07:34:19.380Z,36256.00
2023-03-22T07:35:19.390Z,35008.00
2023-03-22T07:36:19.343Z,39328.00
2023-03-22T07:37:19.344Z,37600.00
2023-03-22T07:38:19.335Z,25696.00
2023-03-22T07:39:19.345Z,38816.00
2023-03-22T07:40:19.319Z,39040.00
2023-03-22T07:41:19.311Z,26496.00
2023-03-22T07:42:19.303Z,21280.00
2023-03-22T07:43:19.296Z,24384.00
2023-03-22T07:44:19.328Z,40576.00
2023-03-22T07:45:19.311Z,46304.00
2023-03-22T07:46:19.312Z,25632.00
2023-03-22T07:47:30.502Z,29760.00
2023-03-22T07:48:22.620Z,43456.00
2023-03-22T07:49:19.286Z,40864.00
2023-03-22T07:50:19.250Z,24480.00
2023-03-22T07:51:19.282Z,41760.00
2023-03-22T07:52:19.258Z,24928.00
2023-03-22T07:53:19.227Z,41632.00
2023-03-22T07:54:32.545Z,40640.00
2023-03-22T07:55:21.300Z,35648.00
2023-03-22T07:56:19.204Z,24384.00
2023-03-22T07:57:19.188Z,36512.00
2023-03-22T07:58:20.192Z,36800.00
2023-03-22T07:59:19.251Z,37952.00
2023-03-22T08:00:19.194Z,38240.00
2023-03-22T08:01:19.166Z,36992.00
2023-03-22T08:02:19.232Z,36224.00
2023-03-22T08:03:19.209Z,36032.00
2023-03-22T08:04:19.158Z,36000.00
2023-03-22T08:05:19.167Z,35936.00
2023-03-22T08:06:19.130Z,36544.00
2023-03-22T08:07:19.128Z,33696.00
2023-03-22T08:08:19.116Z,33568.00
2023-03-22T08:09:19.104Z,32640.00
2023-03-22T08:10:19.124Z,33696.00
2023-03-22T08:11:19.090Z,35488.00
2023-03-22T08:12:19.080Z,27968.00
2023-03-22T08:13:19.075Z,23808.00
2023-03-22T08:14:30.611Z,27520.00
2023-03-22T08:15:22.626Z,23744.00
2023-03-22T08:16:19.112Z,14636.00
2023-03-22T08:17:19.040Z,15100.00
2023-03-22T08:18:19.032Z,16928.00
2023-03-22T08:19:19.029Z,21472.00
2023-03-22T08:20:19.045Z,18432.00
2023-03-22T08:21:19.012Z,20256.00
2023-03-22T08:22:19.010Z,30016.00
2023-03-22T08:23:22.605Z,29344.00
2023-03-22T08:24:20.008Z,26304.00
2023-03-22T08:25:19.009Z,23168.00
2023-03-22T08:26:18.979Z,23200.00
2023-03-22T08:27:19.959Z,24640.00
2023-03-22T08:28:18.954Z,32544.00
2023-03-22T08:29:18.951Z,16928.00
2023-03-22T08:30:19.179Z,29504.00
2023-03-22T08:31:18.951Z,36992.00
2023-03-22T08:32:18.923Z,36640.00
2023-03-22T08:33:18.930Z,37152.00
2023-03-22T08:34:18.915Z,39840.00
2023-03-22T08:35:18.955Z,21504.00
2023-03-22T08:36:18.898Z,15240.00
2023-03-22T08:37:18.884Z,16576.00
2023-03-22T08:38:18.877Z,14580.00
2023-03-22T08:39:18.870Z,19040.00
2023-03-22T08:40:18.905Z,17920.00
2023-03-22T08:41:18.856Z,14804.00
2023-03-22T08:42:18.858Z,13196.00
2023-03-22T08:43:18.839Z,13620.00
2023-03-22T08:44:18.839Z,28672.00
2023-03-22T08:45:18.849Z,11692.00
2023-03-22T08:46:18.908Z,12464.00
2023-03-22T08:47:18.810Z,15232.00
2023-03-22T08:48:18.877Z,13324.00
2023-03-22T08:49:18.800Z,11544.00
2023-03-22T08:50:18.813Z,12184.00
2023-03-22T08:51:19.322Z,9544.00
2023-03-22T08:52:19.763Z,7928.00
2023-03-22T08:53:18.758Z,7132.00
2023-03-22T08:54:18.771Z,7608.00
2023-03-22T08:55:18.779Z,8264.00
2023-03-22T08:56:18.731Z,8872.00
2023-03-22T08:57:18.725Z,8112.00
2023-03-22T08:58:18.715Z,6868.00
2023-03-22T08:59:18.703Z,6360.00
2023-03-22T09:00:18.704Z,5688.00
2023-03-22T09:01:18.768Z,5440.00
2023-03-22T09:02:18.718Z,6140.00
2023-03-22T09:03:18.676Z,8064.00
2023-03-22T09:04:18.734Z,8260.00
2023-03-22T09:05:18.649Z,8404.00
2023-03-22T09:06:18.670Z,8908.00
2023-03-22T09:07:18.635Z,7660.00
2023-03-22T09:08:19.818Z,9364.00
2023-03-22T09:09:19.637Z,9500.00
2023-03-22T09:10:18.613Z,8604.00
2023-03-22T09:11:18.628Z,8356.00
2023-03-22T09:12:18.598Z,8688.00
2023-03-22T09:13:18.590Z,12272.00
2023-03-22T09:14:18.579Z,12868.00
2023-03-22T09:15:18.576Z,12712.00
2023-03-22T09:16:18.651Z,11196.00
2023-03-22T09:17:20.158Z,9152.00
2023-03-22T09:18:18.537Z,7580.00
2023-03-22T09:19:19.543Z,6728.00
2023-03-22T09:20:18.528Z,7884.00
2023-03-22T09:21:18.558Z,8204.00
2023-03-22T09:22:18.521Z,7308.00
2023-03-22T09:23:18.508Z,7060.00
2023-03-22T09:24:18.511Z,8680.00
2023-03-22T09:25:18.496Z,10608.00
2023-03-22T09:26:18.512Z,10904.00
2023-03-22T09:27:18.497Z,9572.00
2023-03-22T09:28:18.518Z,8600.00
2023-03-22T09:29:18.465Z,8972.00
2023-03-22T09:30:18.454Z,9016.00
2023-03-22T09:31:20.432Z,12720.00
2023-03-22T09:32:19.442Z,12296.00
2023-03-22T09:33:18.431Z,13912.00
2023-03-22T09:34:18.435Z,12264.00
2023-03-22T09:35:18.455Z,11348.00
2023-03-22T09:36:18.432Z,11508.00
2023-03-22T09:37:18.401Z,12196.00
2023-03-22T09:38:18.388Z,13292.00
2023-03-22T09:39:18.388Z,14116.00
2023-03-22T09:40:18.377Z,15796.00
2023-03-22T09:41:18.407Z,14332.00
2023-03-22T09:42:18.354Z,12396.00
2023-03-22T09:43:19.361Z,15260.00
2023-03-22T09:44:18.345Z,12300.00
2023-03-22T09:45:18.338Z,11204.00
2023-03-22T09:46:18.355Z,10180.00
2023-03-22T09:47:18.319Z,9744.00
2023-03-22T09:48:18.361Z,9300.00
2023-03-22T09:49:18.303Z,9240.00
2023-03-22T09:50:18.292Z,8388.00
2023-03-22T09:51:18.313Z,8032.00
2023-03-22T09:52:18.331Z,8268.00
2023-03-22T09:53:18.275Z,8476.00
2023-03-22T09:54:18.273Z,8600.00
2023-03-22T09:55:18.261Z,8892.00
2023-03-22T09:56:18.272Z,9300.00
2023-03-22T09:57:18.239Z,9976.00
2023-03-22T09:58:18.346Z,10476.00
2023-03-22T09:59:18.226Z,12164.00
2023-03-22T10:00:18.294Z,13624.00
2023-03-22T10:01:20.783Z,11616.00
2023-03-22T10:02:19.373Z,11060.00
2023-03-22T10:03:18.197Z,10628.00
2023-03-22T10:04:18.213Z,12620.00
2023-03-22T10:05:18.185Z,13248.00
2023-03-22T10:06:18.206Z,12716.00
2023-03-22T10:07:18.162Z,15872.00
2023-03-22T10:08:18.180Z,16992.00
2023-03-22T10:09:18.150Z,16800.00
2023-03-22T10:10:18.171Z,16192.00
2023-03-22T10:11:18.975Z,16608.00
2023-03-22T10:12:18.133Z,16224.00
2023-03-22T10:13:18.114Z,15676.00
2023-03-22T10:14:18.112Z,14828.00
2023-03-22T10:15:18.120Z,14288.00
2023-03-22T10:16:18.251Z,15488.00
2023-03-22T10:17:18.111Z,15904.00
2023-03-22T10:18:18.081Z,14384.00
2023-03-22T10:19:18.079Z,13184.00
2023-03-22T10:20:18.061Z,12336.00
2023-03-22T10:21:18.099Z,12696.00
2023-03-22T10:22:18.070Z,14040.00
2023-03-22T10:23:18.035Z,15204.00
2023-03-22T10:24:18.024Z,14056.00
2023-03-22T10:25:18.032Z,13120.00
2023-03-22T10:26:18.014Z,14424.00
2023-03-22T10:27:18.027Z,12928.00
2023-03-22T10:28:17.997Z,13336.00
2023-03-22T10:29:17.994Z,12748.00
2023-03-22T10:30:17.979Z,13084.00
2023-03-22T10:31:18.045Z,13784.00
2023-03-22T10:32:18.056Z,13992.00
2023-03-22T10:33:17.951Z,14220.00
2023-03-22T10:34:17.949Z,13484.00
2023-03-22T10:35:18.061Z,13976.00
2023-03-22T10:36:17.928Z,13672.00
2023-03-22T10:37:17.945Z,13816.00
2023-03-22T10:38:17.942Z,14796.00
2023-03-22T10:39:17.910Z,15072.00
2023-03-22T10:40:18.036Z,14620.00
2023-03-22T10:41:17.897Z,15168.00
2023-03-22T10:42:17.937Z,14288.00
2023-03-22T10:43:17.893Z,13400.00
2023-03-22T10:44:17.875Z,13088.00
2023-03-22T10:45:17.863Z,13552.00
2023-03-22T10:46:17.893Z,14072.00
2023-03-22T10:47:17.880Z,13868.00
2023-03-22T10:48:19.416Z,12636.00
2023-03-22T10:49:18.835Z,13016.00
2023-03-22T10:50:17.917Z,12692.00
2023-03-22T10:51:17.822Z,12708.00
2023-03-22T10:52:17.850Z,11540.00
2023-03-22T10:53:17.805Z,10640.00
2023-03-22T10:54:17.815Z,10756.00
2023-03-22T10:55:17.792Z,10912.00
2023-03-22T10:56:17.776Z,11372.00
2023-03-22T10:57:17.797Z,10672.00
2023-03-22T10:58:17.782Z,11344.00
2023-03-22T10:59:17.759Z,11896.00
2023-03-22T11:00:17.815Z,12112.00
2023-03-22T11:01:17.856Z,11932.00
2023-03-22T11:02:17.864Z,11776.00
2023-03-22T11:03:17.728Z,11828.00
2023-03-22T11:04:17.741Z,11668.00
2023-03-22T11:05:17.710Z,11868.00
2023-03-22T11:06:17.701Z,11624.00
2023-03-22T11:07:17.693Z,11364.00
2023-03-22T11:08:17.683Z,11460.00
2023-03-22T11:09:17.699Z,11112.00
2023-03-22T11:10:17.797Z,10504.00
2023-03-22T11:11:17.672Z,9944.00
2023-03-22T11:12:17.647Z,9264.00
2023-03-22T11:13:17.641Z,9220.00
2023-03-22T11:14:17.659Z,9672.00
2023-03-22T11:15:17.627Z,9804.00
2023-03-22T11:16:17.665Z,10272.00
2023-03-22T11:17:17.607Z,10364.00
2023-03-22T11:18:17.606Z,10160.00
2023-03-22T11:19:17.624Z,9996.00
2023-03-22T11:20:17.706Z,10056.00
2023-03-22T11:21:17.577Z,10300.00
2023-03-22T11:22:17.609Z,10064.00
2023-03-22T11:23:17.562Z,10112.00
2023-03-22T11:24:17.588Z,9880.00
2023-03-22T11:25:17.562Z,10032.00
2023-03-22T11:26:17.543Z,10376.00
2023-03-22T11:27:17.537Z,10672.00
2023-03-22T11:28:17.533Z,10904.00
2023-03-22T11:29:17.548Z,11108.00
2023-03-22T11:30:17.519Z,11012.00
2023-03-22T11:31:17.537Z,10772.00
2023-03-22T11:32:17.558Z,10556.00
2023-03-22T11:33:17.560Z,10820.00
2023-03-22T11:34:17.489Z,10956.00
2023-03-22T11:35:17.511Z,12228.00
2023-03-22T11:36:17.462Z,11928.00
2023-03-22T11:37:18.206Z,12424.00
2023-03-22T11:38:18.939Z,11660.00
2023-03-22T11:39:17.473Z,12016.00
2023-03-22T11:40:17.501Z,11140.00
2023-03-22T11:41:17.439Z,10984.00
2023-03-22T11:42:17.421Z,10956.00
2023-03-22T11:43:17.411Z,11780.00
2023-03-22T11:44:17.424Z,11568.00
2023-03-22T11:45:17.434Z,11288.00
2023-03-22T11:46:17.436Z,10908.00
2023-03-22T11:47:17.396Z,10836.00
2023-03-22T11:48:17.469Z,10632.00
2023-03-22T11:49:17.375Z,10704.00
2023-03-22T11:50:17.411Z,10424.00
2023-03-22T11:51:18.167Z,10636.00
2023-03-22T11:52:17.350Z,10816.00
2023-03-22T11:53:17.351Z,11112.00
2023-03-22T11:54:17.347Z,11240.00
2023-03-22T11:55:17.343Z,10932.00
2023-03-22T11:56:17.323Z,10640.00
2023-03-22T11:57:18.308Z,10304.00
2023-03-22T11:58:17.299Z,10088.00
2023-03-22T11:59:17.301Z,9984.00
2023-03-22T12:00:17.307Z,9996.00
2023-03-22T12:01:17.278Z,9948.00
2023-03-22T12:02:17.323Z,9756.00
2023-03-22T12:03:17.326Z,9544.00
2023-03-22T12:04:17.297Z,9428.00
2023-03-22T12:05:17.357Z,9608.00
2023-03-22T12:06:17.249Z,9920.00
2023-03-22T12:07:17.239Z,10344.00
2023-03-22T12:08:17.217Z,10424.00
2023-03-22T12:09:17.211Z,10444.00
2023-03-22T12:10:17.235Z,10536.00
2023-03-22T12:11:17.198Z,10544.00
2023-03-22T12:12:17.185Z,10492.00
2023-03-22T12:13:17.181Z,10436.00
2023-03-22T12:14:17.175Z,10044.00
2023-03-22T12:15:17.191Z,9856.00
2023-03-22T12:16:17.227Z,9732.00
2023-03-22T12:17:17.144Z,9940.00
2023-03-22T12:18:17.153Z,10416.00
2023-03-22T12:19:17.140Z,10452.00
2023-03-22T12:20:17.172Z,10656.00
2023-03-22T12:21:17.140Z,10764.00
2023-03-22T12:22:17.112Z,10804.00
2023-03-22T12:23:17.093Z,10500.00
2023-03-22T12:24:18.146Z,10508.00
2023-03-22T12:25:17.572Z,11372.00